createdAt,value
2023-04-09T00:00:30.162Z,3.38
2023-04-09T00:03:18.315Z,3.36
2023-04-09T00:05:46.231Z,3.37
2023-04-09T00:08:14.140Z,3.39
2023-04-09T00:10:41.998Z,3.38
2023-04-09T00:13:09.979Z,3.34
2023-04-09T00:15:38.046Z,3.32
2023-04-09T00:18:06.403Z,3.29
2023-04-09T00:20:34.397Z,3.29
2023-04-09T00:23:02.255Z,3.25
2023-04-09T00:25:30.527Z,3.22
2023-04-09T00:27:59.090Z,3.20
2023-04-09T00:30:28.888Z,3.21
2023-04-09T00:32:56.897Z,3.23
2023-04-09T00:35:25.526Z,3.26
2023-04-09T00:37:53.458Z,3.25
2023-04-09T00:40:21.425Z,3.24
2023-04-09T00:42:49.420Z,3.21
2023-04-09T00:45:17.423Z,3.15
2023-04-09T00:47:46.650Z,3.16
2023-04-09T00:50:14.750Z,3.16
2023-04-09T00:52:43.155Z,3.13
2023-04-09T00:55:11.093Z,3.18
2023-04-09T00:57:38.966Z,3.18
2023-04-09T01:00:07.948Z,3.15
2023-04-09T01:02:36.165Z,3.09
2023-04-09T01:05:04.557Z,3.11
2023-04-09T01:07:55.008Z,3.12
2023-04-09T01:10:42.642Z,3.12
2023-04-09T01:13:10.986Z,3.05
2023-04-09T01:15:42.565Z,3.05
2023-04-09T01:18:16.171Z,3.01
2023-04-09T01:20:49.894Z,3.01
2023-04-09T01:23:20.835Z,2.99
2023-04-09T01:25:54.753Z,2.87
2023-04-09T01:28:26.364Z,2.75
2023-04-09T01:30:58.662Z,2.66
2023-04-09T01:33:27.229Z,2.58
2023-04-09T01:35:55.826Z,2.51
2023-04-09T01:38:24.309Z,2.39
2023-04-09T01:40:52.413Z,2.33
2023-04-09T01:43:21.228Z,2.25
2023-04-09T01:45:50.061Z,2.17
2023-04-09T01:48:18.402Z,2.09
2023-04-09T01:50:46.789Z,2.01
2023-04-09T01:53:15.617Z,1.97
2023-04-09T01:55:43.656Z,1.93
2023-04-09T01:58:11.766Z,1.91
2023-04-09T02:00:40.716Z,1.89
2023-04-09T02:03:12.853Z,1.87
2023-04-09T02:05:47.032Z,1.83
2023-04-09T02:08:19.632Z,1.77
2023-04-09T02:10:53.683Z,1.69
2023-04-09T02:13:22.153Z,1.60
2023-04-09T02:15:51.201Z,1.52
2023-04-09T02:18:28.828Z,1.50
2023-04-09T02:20:57.646Z,1.53
2023-04-09T02:23:27.107Z,1.46
2023-04-09T02:25:55.364Z,1.40
2023-04-09T02:28:23.313Z,1.36
2023-04-09T02:30:52.761Z,1.30
2023-04-09T02:33:20.779Z,1.25
2023-04-09T02:35:48.728Z,1.21
2023-04-09T02:38:16.845Z,1.21
2023-04-09T02:40:44.728Z,1.16
2023-04-09T02:43:12.776Z,1.11
2023-04-09T02:45:40.748Z,1.01
2023-04-09T02:48:08.735Z,0.95
2023-04-09T02:50:36.715Z,0.93
2023-04-09T02:53:04.666Z,0.89
2023-04-09T02:55:32.634Z,0.83
2023-04-09T02:58:00.598Z,0.80
2023-04-09T03:00:28.501Z,0.79
2023-04-09T03:02:58.157Z,0.78
2023-04-09T03:05:26.318Z,0.74
2023-04-09T03:07:54.488Z,0.68
2023-04-09T03:10:22.519Z,0.63
2023-04-09T03:12:50.448Z,0.60
2023-04-09T03:15:18.429Z,0.59
2023-04-09T03:17:46.381Z,0.56
2023-04-09T03:20:14.286Z,0.54
2023-04-09T03:22:42.174Z,0.50
2023-04-09T03:25:21.758Z,0.47
2023-04-09T03:27:50.953Z,0.44
2023-04-09T03:30:26.591Z,0.39
2023-04-09T03:32:54.649Z,0.34
2023-04-09T03:35:23.703Z,0.28
2023-04-09T03:37:53.058Z,0.24
2023-04-09T03:40:21.109Z,0.17
2023-04-09T03:42:49.166Z,0.14
2023-04-09T03:45:17.369Z,0.08
2023-04-09T03:47:47.430Z,0.14
2023-04-09T03:50:15.449Z,0.18
2023-04-09T03:52:52.030Z,0.23
2023-04-09T03:55:20.050Z,0.26
2023-04-09T03:57:48.833Z,0.30
2023-04-09T04:00:18.687Z,0.30
2023-04-09T04:02:52.403Z,0.31
2023-04-09T04:05:32.406Z,0.30
2023-04-09T04:08:00.975Z,0.29
2023-04-09T04:10:29.455Z,0.31
2023-04-09T04:12:57.413Z,0.38
2023-04-09T04:15:43.141Z,0.45
2023-04-09T04:18:12.161Z,0.49
2023-04-09T04:20:45.646Z,0.54
2023-04-09T04:23:15.045Z,0.59
2023-04-09T04:25:58.301Z,0.58
2023-04-09T04:28:31.097Z,0.60
2023-04-09T04:30:59.732Z,0.62
2023-04-09T04:33:28.213Z,0.69
2023-04-09T04:36:04.261Z,0.78
2023-04-09T04:38:39.451Z,0.93
2023-04-09T04:41:11.547Z,1.08
2023-04-09T04:43:41.953Z,1.19
2023-04-09T04:46:11.390Z,1.35
2023-04-09T04:48:40.408Z,1.61
2023-04-09T04:51:08.417Z,1.81
2023-04-09T04:53:41.336Z,1.96
2023-04-09T04:56:15.004Z,2.07
2023-04-09T04:58:52.282Z,2.17
2023-04-09T05:01:21.092Z,2.28
2023-04-09T05:03:49.493Z,2.31
2023-04-09T05:06:31.608Z,2.36
2023-04-09T05:09:01.600Z,2.52
2023-04-09T05:11:36.369Z,2.53
2023-04-09T05:14:06.275Z,2.72
2023-04-09T05:16:34.282Z,2.85
2023-04-09T05:19:04.888Z,3.02
2023-04-09T05:21:32.932Z,3.20
2023-04-09T05:24:01.190Z,3.34
2023-04-09T05:26:31.731Z,3.51
2023-04-09T05:29:00.461Z,3.66
2023-04-09T05:31:28.491Z,3.77
2023-04-09T05:33:59.794Z,3.98
2023-04-09T05:36:35.398Z,4.11
2023-04-09T05:39:03.485Z,4.29
2023-04-09T05:41:33.765Z,4.55
2023-04-09T05:44:16.575Z,4.72
2023-04-09T05:46:44.630Z,4.88
2023-04-09T05:49:13.024Z,5.03
2023-04-09T05:51:43.309Z,5.20
2023-04-09T05:54:11.740Z,5.28
2023-04-09T05:56:39.664Z,5.37
2023-04-09T05:59:08.101Z,5.44
2023-04-09T06:01:36.439Z,5.43
2023-04-09T06:04:05.175Z,5.42
2023-04-09T06:06:33.528Z,5.52
2023-04-09T06:09:01.535Z,5.61
2023-04-09T06:11:29.419Z,5.71
2023-04-09T06:13:57.520Z,5.71
2023-04-09T06:16:25.539Z,5.83
2023-04-09T06:18:54.704Z,5.87
2023-04-09T06:21:22.667Z,5.92
2023-04-09T06:23:51.838Z,6.01
2023-04-09T06:26:20.265Z,6.20
2023-04-09T06:28:48.163Z,6.33
2023-04-09T06:31:16.467Z,6.39
2023-04-09T06:33:44.492Z,6.57
2023-04-09T06:36:12.541Z,6.64
2023-04-09T06:38:40.552Z,6.72
2023-04-09T06:41:09.239Z,6.69
2023-04-09T06:43:37.520Z,6.76
2023-04-09T06:46:05.667Z,7.00
2023-04-09T06:48:34.293Z,7.18
2023-04-09T06:51:02.242Z,7.28
2023-04-09T06:53:30.722Z,7.32
2023-04-09T06:55:58.694Z,7.23
2023-04-09T06:58:26.909Z,7.23
2023-04-09T07:00:54.964Z,7.30
2023-04-09T07:03:23.022Z,7.31
2023-04-09T07:05:52.072Z,7.34
2023-04-09T07:08:20.048Z,7.46
2023-04-09T07:10:48.044Z,7.46
2023-04-09T07:13:16.317Z,7.49
2023-04-09T07:15:44.271Z,7.60
2023-04-09T07:18:12.229Z,7.72
2023-04-09T07:20:40.371Z,7.83
2023-04-09T07:23:08.346Z,7.93
2023-04-09T07:25:36.594Z,8.03
2023-04-09T07:28:04.500Z,8.16
2023-04-09T07:30:33.050Z,8.27
2023-04-09T07:33:01.203Z,8.28
2023-04-09T07:35:29.251Z,8.35
2023-04-09T07:37:57.402Z,8.44
2023-04-09T07:40:25.335Z,8.53
2023-04-09T07:42:54.055Z,8.62
2023-04-09T07:45:21.886Z,8.70
2023-04-09T07:47:49.773Z,8.80
2023-04-09T07:50:17.769Z,8.81
2023-04-09T07:52:46.284Z,8.90
2023-04-09T07:55:14.569Z,9.00
2023-04-09T07:57:43.757Z,8.97
2023-04-09T08:00:12.360Z,9.05
2023-04-09T08:02:45.000Z,9.25
2023-04-09T08:05:13.413Z,9.37
2023-04-09T08:07:42.106Z,9.43
2023-04-09T08:10:15.174Z,9.49
2023-04-09T08:12:43.505Z,9.50
2023-04-09T08:15:11.994Z,9.55
2023-04-09T08:17:40.596Z,9.64
2023-04-09T08:20:09.057Z,9.70
2023-04-09T08:22:37.029Z,9.74
2023-04-09T08:25:05.171Z,9.79
2023-04-09T08:27:34.119Z,9.85
2023-04-09T08:30:02.585Z,9.97
2023-04-09T08:32:31.045Z,10.04
2023-04-09T08:34:58.939Z,10.10
2023-04-09T08:37:26.999Z,10.06
2023-04-09T08:39:55.082Z,10.24
2023-04-09T08:42:25.308Z,10.38
2023-04-09T08:44:53.606Z,10.54
2023-04-09T08:47:21.700Z,10.67
2023-04-09T08:49:50.382Z,10.68
2023-04-09T08:52:22.096Z,10.79
2023-04-09T08:54:51.457Z,10.89
2023-04-09T08:57:19.682Z,10.39
2023-04-09T08:59:48.118Z,10.32
2023-04-09T09:02:16.172Z,10.03
2023-04-09T09:04:46.361Z,9.94
2023-04-09T09:07:15.203Z,10.29
2023-04-09T09:09:53.463Z,10.49
2023-04-09T09:12:30.687Z,10.21
2023-04-09T09:14:58.683Z,10.23
2023-04-09T09:17:26.758Z,10.35
2023-04-09T09:19:55.041Z,10.57
2023-04-09T09:22:22.929Z,10.78
2023-04-09T09:24:52.199Z,10.95
2023-04-09T09:27:37.278Z,11.08
2023-04-09T09:30:06.153Z,11.22
2023-04-09T09:32:34.182Z,11.40
2023-04-09T09:35:06.020Z,11.58
2023-04-09T09:37:34.355Z,11.84
2023-04-09T09:40:02.536Z,11.88
2023-04-09T09:42:30.508Z,11.98
2023-04-09T09:44:58.890Z,12.01
2023-04-09T09:47:28.028Z,12.24
2023-04-09T09:49:55.945Z,12.46
2023-04-09T09:52:30.375Z,12.40
2023-04-09T09:54:59.026Z,12.32
2023-04-09T09:57:29.062Z,12.37
2023-04-09T10:00:01.758Z,12.37
2023-04-09T10:02:54.245Z,12.61
2023-04-09T10:05:26.845Z,12.80
2023-04-09T10:07:57.482Z,12.97
2023-04-09T10:10:26.301Z,13.21
2023-04-09T10:12:54.305Z,13.37
2023-04-09T10:15:22.724Z,13.55
2023-04-09T10:17:51.865Z,13.69
2023-04-09T10:20:23.565Z,13.84
2023-04-09T10:22:52.682Z,13.95
2023-04-09T10:25:21.098Z,14.02
2023-04-09T10:28:00.222Z,14.08
2023-04-09T10:30:35.131Z,13.77
2023-04-09T10:33:13.766Z,13.43
2023-04-09T10:35:42.469Z,13.10
2023-04-09T10:38:10.822Z,12.98
2023-04-09T10:40:42.635Z,13.00
2023-04-09T10:43:11.332Z,12.85
2023-04-09T10:45:40.787Z,12.96
2023-04-09T10:48:13.097Z,13.06
2023-04-09T10:50:44.734Z,13.14
2023-04-09T10:53:23.791Z,13.14
2023-04-09T10:55:56.380Z,13.08
2023-04-09T10:58:24.351Z,12.90
2023-04-09T11:00:53.985Z,12.89
2023-04-09T11:03:27.500Z,12.89
2023-04-09T11:05:58.638Z,12.96
2023-04-09T11:08:31.517Z,13.04
2023-04-09T11:11:01.571Z,13.19
2023-04-09T11:13:31.137Z,12.90
2023-04-09T11:16:01.518Z,12.37
2023-04-09T11:18:30.489Z,12.38
2023-04-09T11:20:59.591Z,12.42
2023-04-09T11:23:28.057Z,12.63
2023-04-09T11:25:56.689Z,12.75
2023-04-09T11:28:24.614Z,12.82
2023-04-09T11:30:52.672Z,12.75
2023-04-09T11:33:20.849Z,13.00
2023-04-09T11:35:49.094Z,13.36
2023-04-09T11:38:17.904Z,13.60
2023-04-09T11:40:49.048Z,13.76
2023-04-09T11:43:18.094Z,13.55
2023-04-09T11:45:49.120Z,13.40
2023-04-09T11:48:21.942Z,13.58
2023-04-09T11:50:50.776Z,13.74
2023-04-09T11:53:23.023Z,13.92
2023-04-09T11:55:52.382Z,14.09
2023-04-09T11:58:24.765Z,14.24
2023-04-09T12:00:53.749Z,14.37
2023-04-09T12:03:28.039Z,14.32
2023-04-09T12:05:56.570Z,14.21
2023-04-09T12:08:25.143Z,14.09
2023-04-09T12:10:53.920Z,14.33
2023-04-09T12:13:31.958Z,14.53
2023-04-09T12:16:01.082Z,14.87
2023-04-09T12:18:29.350Z,15.10
2023-04-09T12:20:57.631Z,14.79
2023-04-09T12:23:25.662Z,14.47
2023-04-09T12:25:55.308Z,14.34
2023-04-09T12:28:23.262Z,14.23
2023-04-09T12:30:51.299Z,14.32
2023-04-09T12:33:19.430Z,14.33
2023-04-09T12:35:47.917Z,14.38
2023-04-09T12:38:15.761Z,14.23
2023-04-09T12:40:43.661Z,14.19
2023-04-09T12:43:11.970Z,13.94
2023-04-09T12:45:39.951Z,13.90
2023-04-09T12:48:08.058Z,13.69
2023-04-09T12:50:36.027Z,13.47
2023-04-09T12:53:03.908Z,13.37
2023-04-09T12:55:31.896Z,13.25
2023-04-09T12:58:00.115Z,13.16
2023-04-09T13:00:31.035Z,12.97
2023-04-09T13:02:59.424Z,12.74
2023-04-09T13:05:27.471Z,12.73
2023-04-09T13:07:55.404Z,12.71
2023-04-09T13:10:23.623Z,12.66
2023-04-09T13:12:51.610Z,12.64
2023-04-09T13:15:19.609Z,12.72
2023-04-09T13:17:47.756Z,12.71
2023-04-09T13:20:15.956Z,12.77
2023-04-09T13:22:48.757Z,12.84
2023-04-09T13:25:16.863Z,13.01
2023-04-09T13:27:44.896Z,13.29
2023-04-09T13:30:13.289Z,13.47
2023-04-09T13:32:41.502Z,13.33
2023-04-09T13:35:10.525Z,13.65
2023-04-09T13:37:38.395Z,13.70
2023-04-09T13:40:09.044Z,13.71
2023-04-09T13:42:37.700Z,13.28
2023-04-09T13:45:06.125Z,13.22
2023-04-09T13:47:34.111Z,13.04
2023-04-09T13:50:02.095Z,12.86
2023-04-09T13:52:30.295Z,12.67
2023-04-09T13:54:58.537Z,12.71
2023-04-09T13:57:27.404Z,12.42
2023-04-09T13:59:55.669Z,12.41
2023-04-09T14:02:23.874Z,12.38
2023-04-09T14:04:52.641Z,12.30
2023-04-09T14:07:20.657Z,12.15
2023-04-09T14:09:48.642Z,12.05
2023-04-09T14:12:16.645Z,11.98
2023-04-09T14:14:44.523Z,11.97
2023-04-09T14:17:12.522Z,11.98
2023-04-09T14:19:40.531Z,12.00
2023-04-09T14:22:09.100Z,11.97
2023-04-09T14:24:40.184Z,11.96
2023-04-09T14:27:09.174Z,11.97
2023-04-09T14:29:37.112Z,11.94
2023-04-09T14:32:05.007Z,11.89
2023-04-09T14:34:32.913Z,11.84
2023-04-09T14:37:00.857Z,11.81
2023-04-09T14:39:28.736Z,11.79
2023-04-09T14:41:57.434Z,11.80
2023-04-09T14:44:28.345Z,11.74
2023-04-09T14:46:56.909Z,11.68
2023-04-09T14:49:24.921Z,11.67
2023-04-09T14:51:52.932Z,11.65
2023-04-09T14:54:21.266Z,11.53
2023-04-09T14:56:49.185Z,11.39
2023-04-09T14:59:17.119Z,11.41
2023-04-09T15:01:45.094Z,11.29
2023-04-09T15:04:13.255Z,11.30
2023-04-09T15:06:41.481Z,11.25
2023-04-09T15:09:09.338Z,11.26
2023-04-09T15:11:37.266Z,11.24
2023-04-09T15:14:05.303Z,11.23
2023-04-09T15:16:37.582Z,11.19
2023-04-09T15:19:05.948Z,11.10
2023-04-09T15:21:33.870Z,10.99
2023-04-09T15:24:02.471Z,10.84
2023-04-09T15:26:30.478Z,10.77
2023-04-09T15:29:02.301Z,10.75
2023-04-09T15:31:30.871Z,10.73
2023-04-09T15:33:58.860Z,10.69
2023-04-09T15:36:29.133Z,10.66
2023-04-09T15:38:57.101Z,10.64
2023-04-09T15:41:26.848Z,10.66
2023-04-09T15:43:54.842Z,10.59
2023-04-09T15:46:22.786Z,10.55
2023-04-09T15:48:51.134Z,10.53
2023-04-09T15:51:19.254Z,10.47
2023-04-09T15:53:47.216Z,10.43
2023-04-09T15:56:15.480Z,10.38
2023-04-09T15:58:43.462Z,10.34
2023-04-09T16:01:11.640Z,10.30
2023-04-09T16:03:41.261Z,10.28
2023-04-09T16:06:10.663Z,10.24
2023-04-09T16:08:39.459Z,10.21
2023-04-09T16:11:08.375Z,10.16
2023-04-09T16:13:37.305Z,10.10
2023-04-09T16:16:07.002Z,10.05
2023-04-09T16:18:35.102Z,10.00
2023-04-09T16:21:03.010Z,9.93
2023-04-09T16:23:31.224Z,9.85
2023-04-09T16:25:59.280Z,9.79
2023-04-09T16:28:27.184Z,9.72
2023-04-09T16:30:55.362Z,9.65
2023-04-09T16:33:23.316Z,9.59
2023-04-09T16:35:51.398Z,9.55
2023-04-09T16:38:19.264Z,9.50
2023-04-09T16:40:47.118Z,9.46
2023-04-09T16:43:15.443Z,9.40
2023-04-09T16:45:43.915Z,9.34
2023-04-09T16:48:12.873Z,9.28
2023-04-09T16:50:41.241Z,9.19
2023-04-09T16:53:09.311Z,9.17
2023-04-09T16:55:37.678Z,9.13
2023-04-09T16:58:05.758Z,9.11
2023-04-09T17:00:35.357Z,9.08
2023-04-09T17:03:03.933Z,9.06
2023-04-09T17:05:32.134Z,9.02
2023-04-09T17:08:00.142Z,8.96
2023-04-09T17:10:28.270Z,8.94
2023-04-09T17:12:56.527Z,8.90
2023-04-09T17:15:25.402Z,8.86
2023-04-09T17:17:53.877Z,8.83
2023-04-09T17:20:22.857Z,8.80
2023-04-09T17:22:50.857Z,8.78
2023-04-09T17:25:20.467Z,8.74
2023-04-09T17:27:48.427Z,8.69
2023-04-09T17:30:16.453Z,8.65
2023-04-09T17:32:44.950Z,8.60
2023-04-09T17:35:12.839Z,8.56
2023-04-09T17:37:40.733Z,8.54
2023-04-09T17:40:09.063Z,8.53
2023-04-09T17:42:37.352Z,8.50
2023-04-09T17:45:05.735Z,8.48
2023-04-09T17:47:33.634Z,8.46
2023-04-09T17:50:01.933Z,8.41
2023-04-09T17:52:36.591Z,8.39
2023-04-09T17:55:08.638Z,8.31
2023-04-09T17:57:36.796Z,8.26
2023-04-09T18:00:05.295Z,8.23
2023-04-09T18:02:33.735Z,8.20
2023-04-09T18:05:04.755Z,8.16
2023-04-09T18:07:35.491Z,8.10
2023-04-09T18:10:03.992Z,8.04
2023-04-09T18:12:32.400Z,7.94
2023-04-09T18:15:00.456Z,7.96
2023-04-09T18:17:28.642Z,7.92
2023-04-09T18:19:59.660Z,7.91
2023-04-09T18:22:27.873Z,7.85
2023-04-09T18:24:56.653Z,7.83
2023-04-09T18:27:24.588Z,7.78
2023-04-09T18:29:52.592Z,7.74
2023-04-09T18:32:20.640Z,7.70
2023-04-09T18:34:48.633Z,7.63
2023-04-09T18:37:17.455Z,7.58
2023-04-09T18:39:46.450Z,7.50
2023-04-09T18:42:14.457Z,7.41
2023-04-09T18:44:42.668Z,7.33
2023-04-09T18:47:10.815Z,7.29
2023-04-09T18:49:38.714Z,7.27
2023-04-09T18:52:07.973Z,7.23
2023-04-09T18:54:37.542Z,7.19
2023-04-09T18:57:07.746Z,7.19
2023-04-09T18:59:36.030Z,7.17
2023-04-09T19:02:05.503Z,7.12
2023-04-09T19:04:39.744Z,7.13
2023-04-09T19:07:08.235Z,7.13
2023-04-09T19:09:37.253Z,7.11
2023-04-09T19:12:05.552Z,7.05
2023-04-09T19:14:33.808Z,7.00
2023-04-09T19:17:03.013Z,6.96
2023-04-09T19:19:30.972Z,6.90
2023-04-09T19:21:59.347Z,6.86
2023-04-09T19:24:27.344Z,6.82
2023-04-09T19:26:56.689Z,6.77
2023-04-09T19:29:24.686Z,6.71
2023-04-09T19:31:52.726Z,6.66
2023-04-09T19:34:20.680Z,6.61
2023-04-09T19:36:48.544Z,6.57
2023-04-09T19:39:16.399Z,6.52
2023-04-09T19:41:44.360Z,6.49
2023-04-09T19:44:12.271Z,6.43
2023-04-09T19:46:40.322Z,6.36
2023-04-09T19:49:08.214Z,6.30
2023-04-09T19:51:36.168Z,6.24
2023-04-09T19:54:04.050Z,6.19
2023-04-09T19:56:33.020Z,6.12
2023-04-09T19:59:01.038Z,6.07
2023-04-09T20:01:29.125Z,5.94
2023-04-09T20:03:57.616Z,5.86
2023-04-09T20:06:26.119Z,5.81
2023-04-09T20:08:54.957Z,5.71
2023-04-09T20:11:23.050Z,5.66
2023-04-09T20:13:52.069Z,5.60
2023-04-09T20:16:20.210Z,5.50
2023-04-09T20:18:48.270Z,5.42
2023-04-09T20:21:16.182Z,5.31
2023-04-09T20:23:45.624Z,5.19
2023-04-09T20:26:13.757Z,5.13
2023-04-09T20:28:41.869Z,5.09
2023-04-09T20:31:09.751Z,5.03
2023-04-09T20:33:37.667Z,4.98
2023-04-09T20:36:13.762Z,4.89
2023-04-09T20:38:41.692Z,4.89
2023-04-09T20:41:09.618Z,4.80
2023-04-09T20:43:38.617Z,4.73
2023-04-09T20:46:06.665Z,4.65
2023-04-09T20:48:34.660Z,4.59
2023-04-09T20:51:03.838Z,4.54
2023-04-09T20:53:32.356Z,4.55
2023-04-09T20:56:02.208Z,4.49
2023-04-09T20:58:30.339Z,4.42
2023-04-09T21:01:06.646Z,4.35
2023-04-09T21:03:36.185Z,4.32
2023-04-09T21:06:04.512Z,4.28
2023-04-09T21:08:32.844Z,4.22
2023-04-09T21:11:00.898Z,4.15
2023-04-09T21:13:29.113Z,4.12
2023-04-09T21:15:57.654Z,4.10
2023-04-09T21:18:25.609Z,4.03
2023-04-09T21:20:53.530Z,3.98
2023-04-09T21:23:21.570Z,3.96
2023-04-09T21:25:49.428Z,3.93
2023-04-09T21:28:17.280Z,3.91
2023-04-09T21:30:45.336Z,3.87
2023-04-09T21:33:13.254Z,3.85
2023-04-09T21:35:41.394Z,3.80
2023-04-09T21:38:09.383Z,3.79
2023-04-09T21:40:37.356Z,3.76
2023-04-09T21:43:05.226Z,3.72
2023-04-09T21:45:33.159Z,3.69
2023-04-09T21:48:01.676Z,3.64
2023-04-09T21:50:31.284Z,3.61
2023-04-09T21:52:59.121Z,3.57
2023-04-09T21:55:27.088Z,3.55
2023-04-09T21:57:56.303Z,3.53
2023-04-09T22:00:24.201Z,3.50
2023-04-09T22:02:52.239Z,3.49
2023-04-09T22:05:20.544Z,3.47
2023-04-09T22:07:48.443Z,3.44
2023-04-09T22:10:16.450Z,3.41
2023-04-09T22:12:44.396Z,3.39
2023-04-09T22:15:12.276Z,3.40
2023-04-09T22:17:41.046Z,3.40
2023-04-09T22:20:09.809Z,3.41
2023-04-09T22:22:37.845Z,3.39
2023-04-09T22:25:07.190Z,3.42
2023-04-09T22:27:35.088Z,3.40
2023-04-09T22:30:03.165Z,3.41
2023-04-09T22:32:33.571Z,3.41
2023-04-09T22:35:01.543Z,3.40
2023-04-09T22:37:29.495Z,3.42
2023-04-09T22:39:57.369Z,3.46
2023-04-09T22:42:25.751Z,3.51
2023-04-09T22:44:54.049Z,3.54
2023-04-09T22:47:22.037Z,3.55
2023-04-09T22:49:52.872Z,3.57
2023-04-09T22:52:21.006Z,3.62
2023-04-09T22:54:48.870Z,3.67
2023-04-09T22:57:16.746Z,3.70
2023-04-09T22:59:44.623Z,3.77
2023-04-09T23:02:12.651Z,3.80
2023-04-09T23:04:40.960Z,3.81
2023-04-09T23:07:09.424Z,3.80
2023-04-09T23:09:37.596Z,3.83
2023-04-09T23:12:05.518Z,3.82
2023-04-09T23:14:33.500Z,3.87
2023-04-09T23:17:01.546Z,3.84
2023-04-09T23:19:29.452Z,3.82
2023-04-09T23:21:57.398Z,3.84
2023-04-09T23:24:25.320Z,3.82
2023-04-09T23:26:53.256Z,3.82
2023-04-09T23:29:21.323Z,3.77
2023-04-09T23:31:49.260Z,3.81
2023-04-09T23:34:17.146Z,3.81
2023-04-09T23:36:45.049Z,3.75
2023-04-09T23:39:12.911Z,3.75
2023-04-09T23:41:41.485Z,3.72
2023-04-09T23:44:09.386Z,3.70
2023-04-09T23:46:38.106Z,3.71
2023-04-09T23:49:06.089Z,3.65
2023-04-09T23:51:34.093Z,3.56
2023-04-09T23:54:02.939Z,3.57
2023-04-09T23:56:31.053Z,3.56
2023-04-09T23:58:59.078Z,3.54
